sensor_id;sensor_type;location;lat;lon;timestamp;pressure;altitude;pressure_sealevel;temperature;humidity
58739;BME280;44512;53.046;18.604;2023-08-30T00:02:22;100566.67;;;19.26;78.35
58739;BME280;44512;53.046;18.604;2023-08-30T00:12:50;100572.65;;;19.18;78.02
58739;BME280;44512;53.046;18.604;2023-08-30T00:23:18;100574.99;;;19.05;77.49
58739;BME280;44512;53.046;18.604;2023-08-30T00:33:48;100576.86;;;18.99;77.16
58739;BME280;44512;53.046;18.604;2023-08-30T00:44:15;100586.68;;;18.95;76.93
58739;BME280;44512;53.046;18.604;2023-08-30T00:54:44;100573.24;;;18.93;76.87
58739;BME280;44512;53.046;18.604;2023-08-30T01:05:12;100570.77;;;18.92;76.83
58739;BME280;44512;53.046;18.604;2023-08-30T01:15:40;100593.48;;;18.87;76.63
58739;BME280;44512;53.046;18.604;2023-08-30T01:26:14;100585.38;;;18.76;76.46
58739;BME280;44512;53.046;18.604;2023-08-30T01:36:37;100584.94;;;18.84;76.23
58739;BME280;44512;53.046;18.604;2023-08-30T01:47:06;100587.12;;;18.82;75.85
58739;BME280;44512;53.046;18.604;2023-08-30T01:57:34;100591.20;;;18.79;75.60
58739;BME280;44512;53.046;18.604;2023-08-30T02:08:14;100600.78;;;18.77;75.74
58739;BME280;44512;53.046;18.604;2023-08-30T02:18:30;100575.23;;;18.76;75.71
58739;BME280;44512;53.046;18.604;2023-08-30T02:28:59;100543.14;;;18.71;75.64
58739;BME280;44512;53.046;18.604;2023-08-30T02:39:27;100530.17;;;18.67;75.54
58739;BME280;44512;53.046;18.604;2023-08-30T02:49:55;100526.55;;;18.61;75.37
58739;BME280;44512;53.046;18.604;2023-08-30T03:00:24;100508.44;;;18.60;75.27
58739;BME280;44512;53.046;18.604;2023-08-30T03:10:52;100499.15;;;18.61;75.06
58739;BME280;44512;53.046;18.604;2023-08-30T03:21:20;100518.34;;;18.61;74.85
58739;BME280;44512;53.046;18.604;2023-08-30T03:31:49;100525.41;;;18.57;74.70
58739;BME280;44512;53.046;18.604;2023-08-30T03:42:17;100504.81;;;18.55;74.65
58739;BME280;44512;53.046;18.604;2023-08-30T03:52:45;100513.81;;;18.50;74.70
58739;BME280;44512;53.046;18.604;2023-08-30T04:03:15;100529.95;;;18.46;74.79
58739;BME280;44512;53.046;18.604;2023-08-30T04:13:42;100526.07;;;18.42;74.94
58739;BME280;44512;53.046;18.604;2023-08-30T04:24:11;100524.93;;;18.38;75.24
58739;BME280;44512;53.046;18.604;2023-08-30T04:34:39;100516.14;;;18.36;75.52
58739;BME280;44512;53.046;18.604;2023-08-30T04:45:08;100526.28;;;18.36;75.89
58739;BME280;44512;53.046;18.604;2023-08-30T04:55:36;100529.31;;;18.39;76.16
58739;BME280;44512;53.046;18.604;2023-08-30T05:06:04;100537.85;;;18.43;76.30
58739;BME280;44512;53.046;18.604;2023-08-30T05:16:32;100537.59;;;18.44;76.41
58739;BME280;44512;53.046;18.604;2023-08-30T05:27:01;100549.38;;;18.45;76.46
58739;BME280;44512;53.046;18.604;2023-08-30T05:37:29;100547.73;;;18.44;76.58
58739;BME280;44512;53.046;18.604;2023-08-30T05:47:57;100561.42;;;18.44;76.77
58739;BME280;44512;53.046;18.604;2023-08-30T05:58:26;100561.42;;;18.44;76.91
58739;BME280;44512;53.046;18.604;2023-08-30T06:08:54;100543.39;;;18.48;76.98
58739;BME280;44512;53.046;18.604;2023-08-30T06:19:22;100550.03;;;18.52;76.95
58739;BME280;44512;53.046;18.604;2023-08-30T06:29:51;100547.84;;;18.54;76.81
58739;BME280;44512;53.046;18.604;2023-08-30T06:40:19;100548.94;;;18.53;76.67
58739;BME280;44512;53.046;18.604;2023-08-30T06:50:47;100575.84;;;18.56;76.50
58739;BME280;44512;53.046;18.604;2023-08-30T07:01:16;100565.70;;;18.57;76.12
58739;BME280;44512;53.046;18.604;2023-08-30T07:11:44;100566.59;;;18.62;75.82
58739;BME280;44512;53.046;18.604;2023-08-30T07:22:12;100569.37;;;18.67;75.17
58739;BME280;44512;53.046;18.604;2023-08-30T07:32:41;100568.87;;;18.70;75.02
58739;BME280;44512;53.046;18.604;2023-08-30T07:43:09;100579.67;;;18.77;74.85
58739;BME280;44512;53.046;18.604;2023-08-30T07:53:37;100592.01;;;18.80;74.55
58739;BME280;44512;53.046;18.604;2023-08-30T08:04:06;100606.04;;;18.83;74.09
58739;BME280;44512;53.046;18.604;2023-08-30T08:14:34;100604.13;;;18.84;73.97
58739;BME280;44512;53.046;18.604;2023-08-30T08:25:03;100612.92;;;18.86;73.82
58739;BME280;44512;53.046;18.604;2023-08-30T08:35:31;100621.73;;;18.88;73.91
58739;BME280;44512;53.046;18.604;2023-08-30T08:46:00;100638.74;;;18.90;74.10
58739;BME280;44512;53.046;18.604;2023-08-30T08:56:28;100631.10;;;18.92;74.12
58739;BME280;44512;53.046;18.604;2023-08-30T09:06:56;100627.77;;;18.90;73.85
58739;BME280;44512;53.046;18.604;2023-08-30T09:28:01;100626.62;;;18.86;73.80
58739;BME280;44512;53.046;18.604;2023-08-30T09:38:21;100617.84;;;18.84;74.23
58739;BME280;44512;53.046;18.604;2023-08-30T09:48:49;100625.80;;;18.85;74.42
58739;BME280;44512;53.046;18.604;2023-08-30T09:59:18;100621.14;;;18.86;74.71
58739;BME280;44512;53.046;18.604;2023-08-30T10:09:46;100626.13;;;18.89;74.91
58739;BME280;44512;53.046;18.604;2023-08-30T10:20:14;100626.13;;;18.89;74.94
58739;BME280;44512;53.046;18.604;2023-08-30T10:30:43;100617.34;;;18.87;74.19
58739;BME280;44512;53.046;18.604;2023-08-30T10:41:11;100617.95;;;18.94;74.97
58739;BME280;44512;53.046;18.604;2023-08-30T10:56:55;100623.44;;;18.94;74.90
58739;BME280;44512;53.046;18.604;2023-08-30T11:07:18;100609.45;;;18.95;74.98
58739;BME280;44512;53.046;18.604;2023-08-30T11:17:46;100612.52;;;18.99;74.93
58739;BME280;44512;53.046;18.604;2023-08-30T11:38:43;100611.73;;;19.04;74.51
58739;BME280;44512;53.046;18.604;2023-08-30T11:49:11;100610.38;;;19.06;74.48
58739;BME280;44512;53.046;18.604;2023-08-30T11:59:39;100622.50;;;19.10;74.56
58739;BME280;44512;53.046;18.604;2023-08-30T12:10:11;100616.79;;;19.17;74.53
58739;BME280;44512;53.046;18.604;2023-08-30T12:20:36;100614.41;;;19.25;74.19
58739;BME280;44512;53.046;18.604;2023-08-30T12:31:05;100588.38;;;19.28;73.96
58739;BME280;44512;53.046;18.604;2023-08-30T12:41:33;100602.25;;;19.48;73.76
58739;BME280;44512;53.046;18.604;2023-08-30T12:52:01;100595.52;;;19.61;73.61
58739;BME280;44512;53.046;18.604;2023-08-30T13:02:29;100606.58;;;19.71;73.00
58739;BME280;44512;53.046;18.604;2023-08-30T13:12:58;100595.64;;;19.76;72.50
58739;BME280;44512;53.046;18.604;2023-08-30T13:23:26;100579.70;;;19.78;71.77
58739;BME280;44512;53.046;18.604;2023-08-30T13:33:54;100585.20;;;19.78;71.70
58739;BME280;44512;53.046;18.604;2023-08-30T13:44:23;100594.23;;;19.74;71.35
58739;BME280;44512;53.046;18.604;2023-08-30T13:54:51;100589.52;;;19.64;71.29
58739;BME280;44512;53.046;18.604;2023-08-30T14:05:19;100592.23;;;19.59;71.43
58739;BME280;44512;53.046;18.604;2023-08-30T14:15:48;100591.89;;;19.56;71.18
58739;BME280;44512;53.046;18.604;2023-08-30T14:26:16;100593.23;;;19.53;71.17
58739;BME280;44512;53.046;18.604;2023-08-30T14:36:44;100591.57;;;19.52;71.18
58739;BME280;44512;53.046;18.604;2023-08-30T14:47:13;100591.62;;;19.57;71.17
58739;BME280;44512;53.046;18.604;2023-08-30T14:57:41;100586.73;;;19.59;71.22
58739;BME280;44512;53.046;18.604;2023-08-30T15:08:09;100597.38;;;19.56;72.10
58739;BME280;44512;53.046;18.604;2023-08-30T15:18:38;100588.48;;;19.43;72.81
58739;BME280;44512;53.046;18.604;2023-08-30T15:29:06;100602.70;;;19.35;73.23
58739;BME280;44512;53.046;18.604;2023-08-30T15:39:34;100600.18;;;19.29;73.44
58739;BME280;44512;53.046;18.604;2023-08-30T15:50:03;100613.59;;;19.25;73.82
58739;BME280;44512;53.046;18.604;2023-08-30T16:00:31;100622.64;;;19.25;74.17
58739;BME280;44512;53.046;18.604;2023-08-30T16:11:00;100625.39;;;19.25;74.41
58739;BME280;44512;53.046;18.604;2023-08-30T16:21:28;100625.39;;;19.25;74.70
58739;BME280;44512;53.046;18.604;2023-08-30T16:31:56;100633.58;;;19.20;74.82
58739;BME280;44512;53.046;18.604;2023-08-30T16:42:24;100639.02;;;19.15;75.00
58739;BME280;44512;53.046;18.604;2023-08-30T16:52:53;100653.77;;;19.09;75.08
58739;BME280;44512;53.046;18.604;2023-08-30T17:03:21;100652.62;;;19.05;75.20
58739;BME280;44512;53.046;18.604;2023-08-30T17:13:49;100652.56;;;19.00;75.01
58739;BME280;44512;53.046;18.604;2023-08-30T17:24:18;100652.51;;;18.95;74.88
58739;BME280;44512;53.046;18.604;2023-08-30T17:34:46;100654.92;;;18.91;74.72
58739;BME280;44512;53.046;18.604;2023-08-30T17:45:14;100644.76;;;18.87;74.69
58739;BME280;44512;53.046;18.604;2023-08-30T17:55:43;100656.73;;;18.81;74.66
58739;BME280;44512;53.046;18.604;2023-08-30T18:06:11;100649.54;;;18.74;74.54
58739;BME280;44512;53.046;18.604;2023-08-30T18:16:39;100654.95;;;18.69;74.52
58739;BME280;44512;53.046;18.604;2023-08-30T18:27:08;100639.50;;;18.63;74.52
58739;BME280;44512;53.046;18.604;2023-08-30T18:37:36;100650.14;;;18.60;74.40
58739;BME280;44512;53.046;18.604;2023-08-30T18:48:06;100653.02;;;18.48;74.12
58739;BME280;44512;53.046;18.604;2023-08-30T18:58:33;100654.04;;;18.42;73.95
58739;BME280;44512;53.046;18.604;2023-08-30T19:09:01;100658.30;;;18.33;74.03
58739;BME280;44512;53.046;18.604;2023-08-30T19:19:30;100655.82;;;18.31;74.13
58739;BME280;44512;53.046;18.604;2023-08-30T19:29:58;100658.75;;;18.25;74.09
58739;BME280;44512;53.046;18.604;2023-08-30T19:40:26;100660.26;;;18.15;74.03
58739;BME280;44512;53.046;18.604;2023-08-30T19:50:55;100675.20;;;18.08;74.02
58739;BME280;44512;53.046;18.604;2023-08-30T20:01:23;100677.86;;;18.03;73.52
58739;BME280;44512;53.046;18.604;2023-08-30T20:11:51;100668.73;;;17.97;73.98
58739;BME280;44512;53.046;18.604;2023-08-30T20:22:19;100685.69;;;17.94;74.06
58739;BME280;44512;53.046;18.604;2023-08-30T20:32:48;100690.82;;;17.90;74.08
58739;BME280;44512;53.046;18.604;2023-08-30T20:43:16;100689.92;;;17.85;73.99
58739;BME280;44512;53.046;18.604;2023-08-30T20:53:44;100689.09;;;17.84;73.77
58739;BME280;44512;53.046;18.604;2023-08-30T21:04:13;100696.48;;;17.84;73.72
58739;BME280;44512;53.046;18.604;2023-08-30T21:14:41;100701.05;;;17.78;73.80
58739;BME280;44512;53.046;18.604;2023-08-30T21:25:09;100705.91;;;17.76;73.60
58739;BME280;44512;53.046;18.604;2023-08-30T21:35:38;100694.85;;;17.71;73.59
58739;BME280;44512;53.046;18.604;2023-08-30T21:46:06;100706.54;;;17.66;73.57
58739;BME280;44512;53.046;18.604;2023-08-30T21:56:34;100711.93;;;17.61;73.58
58739;BME280;44512;53.046;18.604;2023-08-30T22:07:03;100711.62;;;17.58;73.63
58739;BME280;44512;53.046;18.604;2023-08-30T22:17:31;100715.65;;;17.55;73.53
58739;BME280;44512;53.046;18.604;2023-08-30T22:27:59;100719.64;;;17.48;73.53
58739;BME280;44512;53.046;18.604;2023-08-30T22:38:27;100724.29;;;17.47;73.33
58739;BME280;44512;53.046;18.604;2023-08-30T22:48:56;100732.97;;;17.44;73.24
58739;BME280;44512;53.046;18.604;2023-08-30T22:59:27;100740.52;;;17.37;73.24
58739;BME280;44512;53.046;18.604;2023-08-30T23:09:52;100742.65;;;17.35;73.28
58739;BME280;44512;53.046;18.604;2023-08-30T23:20:21;100735.42;;;17.29;73.09
58739;BME280;44512;53.046;18.604;2023-08-30T23:30:49;100733.67;;;17.23;73.04
58739;BME280;44512;53.046;18.604;2023-08-30T23:41:17;100728.00;;;17.12;72.96
58739;BME280;44512;53.046;18.604;2023-08-30T23:51:46;100730.03;;;17.05;72.88
